Time;durP1;ratioP1;P1;durP2;ratioP2;P2;SDS_P1;SDS_P2;PMS_P1;PMS_P2;Temp;Humidity;BMP_temperature;BMP_pressure;BME280_temperature;BME280_humidity;BME280_pressure;Samples;Min_cycle;Max_cycle;Signal;HPM_P1;HPM_P2
2022/01/26 00:00:07;;;;;;;33.22;21.35;;;4.30;99.90;;;;;;4951026;28;20063;-82
2022/01/26 00:07:54;;;;;;;32.10;21.05;;;4.40;99.90;;;;;;4965054;28;20082;-82
2022/01/26 00:10:20;;;;;;;32.97;20.60;;;4.30;99.90;;;;;;4943424;28;20086;-82
2022/01/26 00:12:46;;;;;;;31.88;22.13;;;4.40;99.90;;;;;;4950558;28;20592;-82
2022/01/26 00:15:11;;;;;;;33.22;20.23;;;4.30;99.90;;;;;;4938994;28;20039;-82
2022/01/26 00:17:40;;;;;;;31.95;22.25;;;4.40;99.90;;;;;;4942850;28;20183;-82
2022/01/26 00:20:21;;;;;;;27.50;20.20;;;4.30;99.90;;;;;;4949547;28;20143;-82
2022/01/26 00:38:39;;;;;;;32.17;20.58;;;4.20;99.90;;;;;;4968484;28;20077;-80
2022/01/26 00:41:09;;;;;;;29.70;19.75;;;4.20;99.90;;;;;;4970529;28;20058;-80
2022/01/26 00:43:38;;;;;;;29.08;20.98;;;4.20;99.90;;;;;;4970511;28;20046;-80
2022/01/26 00:46:06;;;;;;;28.95;20.60;;;4.20;99.90;;;;;;4953134;28;20461;-80
2022/01/26 00:48:36;;;;;;;30.70;19.67;;;4.20;99.90;;;;;;4951626;28;20191;-80
2022/01/26 00:51:04;;;;;;;27.70;19.92;;;4.20;99.90;;;;;;4972133;28;20086;-80
2022/01/26 00:53:38;;;;;;;30.88;19.42;;;4.20;99.90;;;;;;4968105;28;20050;-80
2022/01/26 00:56:05;;;;;;;24.83;19.02;;;4.20;99.90;;;;;;4967771;28;20418;-80
2022/01/26 00:58:32;;;;;;;26.70;18.90;;;4.20;99.90;;;;;;4950210;28;20051;-80
2022/01/26 01:01:00;;;;;;;25.50;18.35;;;4.20;99.90;;;;;;4950441;28;20376;-80
2022/01/26 01:03:27;;;;;;;25.58;19.42;;;4.20;99.90;;;;;;4948607;28;20055;-80
2022/01/26 01:06:03;;;;;;;26.73;19.02;;;4.20;99.90;;;;;;4967841;28;20442;-80
2022/01/26 01:08:30;;;;;;;27.45;20.67;;;4.20;99.90;;;;;;4968626;28;20093;-80
2022/01/26 01:10:57;;;;;;;28.63;20.50;;;4.20;99.90;;;;;;4949846;28;20047;-80
2022/01/26 01:13:33;;;;;;;26.73;20.55;;;4.20;99.90;;;;;;4951065;28;20093;-80
2022/01/26 01:15:59;;;;;;;27.20;20.75;;;4.20;99.90;;;;;;4950841;28;20085;-80
2022/01/26 01:18:36;;;;;;;27.08;19.55;;;4.20;99.90;;;;;;4945116;28;20480;-80
2022/01/26 01:33:53;;;;;;;32.72;23.65;;;4.20;99.90;;;;;;4964362;28;20157;-80
2022/01/26 01:36:21;;;;;;;33.58;24.00;;;4.10;99.90;;;;;;4950158;28;20102;-80
2022/01/26 01:38:47;;;;;;;32.10;24.38;;;4.10;99.90;;;;;;4950315;28;20043;-80
2022/01/26 01:41:12;;;;;;;30.38;22.17;;;4.10;99.90;;;;;;4951012;28;20173;-80
2022/01/26 01:43:38;;;;;;;29.10;21.98;;;4.10;99.90;;;;;;4952109;28;20806;-80
2022/01/26 01:46:05;;;;;;;28.98;20.30;;;4.10;99.90;;;;;;4950811;28;20047;-80
2022/01/26 01:48:33;;;;;;;27.67;20.55;;;4.10;99.90;;;;;;4953245;28;20058;-80
2022/01/26 01:51:02;;;;;;;28.25;19.75;;;4.10;99.90;;;;;;4948451;28;20074;-80
2022/01/26 01:53:34;;;;;;;24.70;19.45;;;4.10;99.90;;;;;;4966783;28;20065;-80
2022/01/26 01:56:01;;;;;;;26.17;19.92;;;4.10;99.90;;;;;;4971464;28;20038;-80
2022/01/26 01:58:27;;;;;;;24.25;18.08;;;4.00;99.90;;;;;;4959280;28;20679;-80
2022/01/26 02:00:53;;;;;;;26.92;19.23;;;4.00;99.90;;;;;;4947206;28;20137;-80
2022/01/26 02:03:19;;;;;;;25.73;19.73;;;4.00;99.90;;;;;;4951164;28;20177;-80
2022/01/26 02:05:45;;;;;;;27.48;20.00;;;4.00;99.90;;;;;;4967443;28;20125;-80
2022/01/26 02:08:10;;;;;;;32.03;20.55;;;4.00;99.90;;;;;;4951581;28;20453;-80
2022/01/26 02:10:37;;;;;;;33.72;22.85;;;4.00;99.90;;;;;;4948659;28;20039;-80
2022/01/26 02:13:18;;;;;;;25.92;20.20;;;4.00;99.90;;;;;;4969705;28;20360;-80
2022/01/26 02:16:02;;;;;;;29.90;20.92;;;4.00;99.90;;;;;;4961949;28;20055;-80
2022/01/26 02:19:38;;;;;;;32.40;23.13;;;4.00;99.90;;;;;;4956352;28;20061;-80
2022/01/26 02:56:27;;;;;;;26.67;19.88;;;;;;;;;;4952830;28;20053;-80
2022/01/26 03:04:10;;;;;;;26.77;17.88;;;;;;;;;;4968724;28;20046;-79
2022/01/26 03:06:47;;;;;;;28.08;19.42;;;;;;;;;;4953067;28;20046;-80
2022/01/26 03:09:16;;;;;;;29.42;19.67;;;;;;;;;;4953531;28;20548;-79
2022/01/26 03:11:45;;;;;;;28.00;19.50;;;;;;;;;;4954329;28;20054;-80
2022/01/26 03:16:48;;;;;;;30.38;19.92;;;;;;;;;;4962740;28;20051;-79
2022/01/26 03:19:22;;;;;;;26.67;19.17;;;;;;;;;;4952509;28;20061;-80
2022/01/26 03:35:30;;;;;;;28.08;19.08;;;;;;;;;;4968085;28;20043;-79
2022/01/26 03:37:57;;;;;;;26.42;17.85;;;;;;;;;;4970807;28;20069;-80
2022/01/26 03:40:33;;;;;;;28.45;20.08;;;;;;;;;;4954687;28;20055;-79
2022/01/26 03:43:00;;;;;;;30.48;20.00;;;;;;;;;;4969724;28;20078;-80
2022/01/26 03:45:26;;;;;;;29.90;20.55;;;;;;;;;;4953117;28;20133;-80
2022/01/26 03:47:53;;;;;;;30.75;20.58;;;;;;;;;;4956183;28;20054;-80
2022/01/26 03:50:19;;;;;;;29.02;19.73;;;;;;;;;;4950189;28;20051;-80
2022/01/26 03:52:45;;;;;;;29.10;20.67;;;;;;;;;;4950767;28;20380;-80
2022/01/26 03:55:11;;;;;;;30.10;21.92;;;;;;;;;;4971644;28;20504;-80
2022/01/26 03:57:37;;;;;;;31.38;22.23;;;;;;;;;;4971099;28;20121;-80
2022/01/26 04:00:06;;;;;;;30.02;21.30;;;;;;;;;;4953190;28;20057;-80
2022/01/26 04:02:32;;;;;;;31.30;21.35;;;;;;;;;;4948166;28;20047;-80
2022/01/26 04:05:01;;;;;;;33.92;22.92;;;;;;;;;;4953296;28;20524;-79
2022/01/26 04:07:27;;;;;;;31.05;22.95;;;;;;;;;;4953445;28;20054;-80
2022/01/26 04:10:01;;;;;;;32.58;23.10;;;;;;;;;;4965808;28;20047;-80
2022/01/26 04:12:27;;;;;;;32.92;23.65;;;;;;;;;;4952592;28;20056;-80
2022/01/26 04:14:59;;;;;;;32.22;21.63;;;;;;;;;;4949875;28;20517;-80
2022/01/26 04:17:25;;;;;;;34.30;23.92;;;;;;;;;;4952000;28;20046;-80
2022/01/26 04:19:56;;;;;;;35.28;24.85;;;;;;;;;;4952082;28;20376;-80
2022/01/26 04:22:29;;;;;;;39.03;25.95;;;;;;;;;;4953239;28;20059;-80
2022/01/26 04:24:59;;;;;;;;;;;;;;;;;;4949825;28;20056;-81
2022/01/26 04:29:51;;;;;;;35.22;24.95;;;;;;;;;;4953806;28;20129;-81
2022/01/26 04:32:17;;;;;;;34.95;24.83;;;;;;;;;;4948922;28;20062;-80
2022/01/26 04:34:45;;;;;;;39.58;27.42;;;;;;;;;;4967696;28;20101;-81
2022/01/26 04:37:27;;;;;;;37.78;26.08;;;;;;;;;;4948039;28;20040;-81
2022/01/26 04:40:08;;;;;;;37.28;27.45;;;;;;;;;;4947204;28;20057;-81
2022/01/26 04:43:02;;;;;;;38.45;27.48;;;;;;;;;;4952958;28;20126;-81
2022/01/26 04:45:21;;;;;;;37.97;26.83;;;;;;;;;;4969781;28;20051;-81
2022/01/26 04:47:47;;;;;;;40.50;27.65;;;;;;;;;;4946544;28;20485;-81
2022/01/26 04:50:14;;;;;;;40.38;28.38;;;;;;;;;;4967521;28;20043;-81
2022/01/26 04:52:40;;;;;;;38.80;27.00;;;;;;;;;;4969113;28;20047;-81
2022/01/26 04:55:07;;;;;;;37.78;26.48;;;;;;;;;;4971740;28;20376;-80
2022/01/26 04:57:33;;;;;;;41.17;27.95;;;;;;;;;;4952665;28;20058;-81
2022/01/26 04:59:59;;;;;;;38.92;27.48;;;;;;;;;;4950295;28;20038;-80
2022/01/26 05:02:25;;;;;;;40.05;26.60;;;;;;;;;;4967089;28;20046;-81
2022/01/26 05:04:51;;;;;;;40.72;27.00;;;;;;;;;;4969830;28;20053;-81
2022/01/26 05:07:19;;;;;;;44.72;29.95;;;;;;;;;;4969660;28;20051;-81
2022/01/26 05:09:45;;;;;;;40.42;27.77;;;;;;;;;;4965163;28;20070;-81
2022/01/26 05:12:13;;;;;;;43.88;27.67;;;;;;;;;;4950509;28;20078;-81
2022/01/26 05:14:42;;;;;;;43.92;28.35;;;;;;;;;;4949264;28;20142;-81
2022/01/26 05:17:08;;;;;;;42.78;28.75;;;;;;;;;;4953925;28;20066;-80
2022/01/26 05:19:34;;;;;;;42.70;27.20;;;;;;;;;;4965488;28;20492;-81
2022/01/26 05:22:00;;;;;;;42.47;27.35;;;;;;;;;;4969847;28;20170;-81
2022/01/26 05:24:26;;;;;;;43.28;28.48;;;;;;;;;;4970269;28;20047;-81
2022/01/26 05:26:52;;;;;;;45.10;27.38;;;;;;;;;;4950110;28;20073;-81
2022/01/26 05:29:18;;;;;;;30.50;20.77;;;;;;;;;;4968303;28;20077;-81
2022/01/26 05:31:44;;;;;;;33.25;19.73;;;;;;;;;;4970618;28;20066;-82
2022/01/26 05:34:10;;;;;;;29.95;18.95;;;;;;;;;;4953053;28;20043;-81
2022/01/26 05:36:36;;;;;;;29.80;19.60;;;;;;;;;;4950260;28;20042;-82
2022/01/26 05:39:02;;;;;;;28.88;19.60;;;;;;;;;;4950125;28;20093;-82
2022/01/26 05:41:28;;;;;;;28.23;19.13;;;;;;;;;;4948740;28;20049;-81
2022/01/26 05:43:54;;;;;;;32.72;19.98;;;;;;;;;;4968991;28;20566;-81
2022/01/26 05:46:31;;;;;;;31.80;20.38;;;;;;;;;;4967268;28;20196;-81
2022/01/26 05:48:57;;;;;;;28.95;20.80;;;;;;;;;;4968508;28;20054;-82
2022/01/26 05:51:23;;;;;;;33.00;22.52;;;;;;;;;;4967765;28;20511;-81
2022/01/26 05:53:50;;;;;;;30.08;19.50;;;;;;;;;;4969929;28;20042;-81
2022/01/26 05:56:16;;;;;;;29.73;19.50;;;;;;;;;;4967137;28;20062;-81
2022/01/26 05:58:42;;;;;;;31.15;20.60;;;;;;;;;;4950710;28;20054;-81
2022/01/26 06:01:08;;;;;;;30.45;21.58;;;;;;;;;;4949466;28;20042;-80
2022/01/26 06:03:34;;;;;;;30.55;19.67;;;;;;;;;;4953612;28;20525;-81
2022/01/26 06:06:00;;;;;;;31.35;20.40;;;;;;;;;;4950184;28;20097;-81
2022/01/26 06:08:26;;;;;;;30.35;21.35;;;;;;;;;;4968572;28;20909;-82
2022/01/26 06:10:55;;;;;;;31.05;21.00;;;;;;;;;;4951944;28;20057;-81
2022/01/26 06:13:21;;;;;;;29.17;20.60;;;;;;;;;;4950081;28;20057;-80
2022/01/26 06:15:47;;;;;;;33.05;20.67;;;;;;;;;;4969399;28;20430;-81
2022/01/26 06:18:14;;;;;;;30.15;19.73;;;;;;;;;;4952983;28;20042;-81
2022/01/26 06:20:40;;;;;;;29.88;20.85;;;;;;;;;;4964051;28;20588;-81
2022/01/26 06:23:07;;;;;;;27.73;18.83;;;;;;;;;;4964686;28;20122;-81
2022/01/26 06:25:33;;;;;;;29.05;19.15;;;;;;;;;;4949119;28;20122;-81
2022/01/26 06:28:01;;;;;;;25.40;17.33;;;;;;;;;;4946553;28;20043;-81
2022/01/26 06:30:27;;;;;;;27.05;18.33;;;;;;;;;;4968676;28;21532;-81
2022/01/26 06:32:53;;;;;;;26.20;18.50;;;;;;;;;;4966308;28;20046;-81
2022/01/26 06:35:20;;;;;;;27.83;18.83;;;;;;;;;;4950391;28;20035;-80
2022/01/26 06:37:46;;;;;;;29.63;19.45;;;;;;;;;;4965672;28;20105;-80
2022/01/26 06:40:12;;;;;;;31.80;20.15;;;;;;;;;;4963892;28;20047;-81
2022/01/26 06:42:55;;;;;;;32.72;22.42;;;;;;;;;;4965283;28;20094;-80
2022/01/26 06:45:24;;;;;;;31.02;21.70;;;;;;;;;;4964832;28;20061;-80
2022/01/26 06:50:36;;;;;;;30.70;20.15;;;;;;;;;;4951490;28;20054;-80
2022/01/26 06:53:02;;;;;;;33.88;22.02;;;;;;;;;;4951549;28;20046;-81
2022/01/26 06:55:30;;;;;;;32.22;22.27;;;;;;;;;;4967666;28;20549;-80
2022/01/26 06:57:56;;;;;;;32.90;23.02;;;;;;;;;;4953472;28;20058;-80
2022/01/26 07:00:23;;;;;;;33.95;22.95;;;;;;;;;;4950067;28;20398;-81
2022/01/26 07:02:49;;;;;;;30.83;21.95;;;;;;;;;;4949509;28;20051;-81
2022/01/26 07:05:15;;;;;;;33.67;21.95;;;;;;;;;;4949809;28;20051;-80
2022/01/26 07:07:41;;;;;;;36.95;22.92;;;;;;;;;;4954136;28;20548;-80
2022/01/26 07:10:08;;;;;;;33.90;22.35;;;;;;;;;;4972996;28;20043;-81
2022/01/26 07:12:34;;;;;;;34.33;22.20;;;;;;;;;;4970686;28;20057;-80
2022/01/26 07:23:13;;;;;;;34.75;22.25;;;4.40;99.90;;;;;;4956027;28;20418;-80
2022/01/26 07:25:39;;;;;;;35.25;24.13;;;4.40;99.90;;;;;;4954908;28;20050;-80
2022/01/26 07:28:05;;;;;;;36.17;22.92;;;4.40;99.90;;;;;;4958935;28;20408;-80
2022/01/26 07:30:34;;;;;;;38.28;23.02;;;4.40;99.90;;;;;;4950227;28;20096;-80
2022/01/26 07:33:00;;;;;;;36.13;22.58;;;4.40;99.90;;;;;;4970702;28;20047;-80
2022/01/26 07:35:25;;;;;;;36.25;23.08;;;4.30;99.90;;;;;;4966484;28;20057;-80
2022/01/26 07:37:53;;;;;;;38.80;22.38;;;4.40;99.90;;;;;;4955513;28;20074;-81
2022/01/26 07:40:28;;;;;;;33.53;22.35;;;4.40;99.90;;;;;;4951273;28;20050;-81
2022/01/26 07:42:54;;;;;;;35.17;19.88;;;4.40;99.90;;;;;;4948195;28;20137;-80
2022/01/26 07:45:20;;;;;;;35.10;19.90;;;4.40;99.90;;;;;;4948961;28;20121;-81
2022/01/26 07:47:47;;;;;;;35.15;20.95;;;4.40;99.90;;;;;;4970033;28;20047;-81
2022/01/26 07:50:15;;;;;;;34.95;21.83;;;4.60;99.90;;;;;;4950109;28;20050;-81
2022/01/26 07:52:42;;;;;;;35.90;20.35;;;4.50;99.90;;;;;;4952313;28;20051;-80
2022/01/26 07:55:13;;;;;;;31.83;20.42;;;4.50;99.90;;;;;;4953451;28;21501;-81
2022/01/26 07:57:38;;;;;;;31.80;19.83;;;4.50;99.90;;;;;;4951624;28;20038;-81
2022/01/26 08:00:06;;;;;;;33.78;20.92;;;4.40;99.90;;;;;;4949118;28;20047;-80
2022/01/26 08:02:31;;;;;;;34.83;22.00;;;4.40;99.90;;;;;;4952888;28;20509;-80
2022/01/26 08:04:57;;;;;;;33.75;21.15;;;4.40;99.90;;;;;;4965946;28;20039;-80
2022/01/26 08:07:23;;;;;;;32.80;20.08;;;4.40;99.90;;;;;;4970360;28;20063;-80
2022/01/26 08:09:49;;;;;;;27.83;18.25;;;;;;;;;;4967995;28;20043;-80
2022/01/26 08:12:16;;;;;;;32.25;18.55;;;;;;;;;;4953286;28;20430;-81
2022/01/26 08:14:45;;;;;;;28.08;19.00;;;;;;;;;;4967354;28;20059;-80
2022/01/26 08:17:14;;;;;;;28.02;17.80;;;;;;;;;;4954876;28;20043;-80
2022/01/26 08:19:40;;;;;;;28.77;18.75;;;;;;;;;;4968390;28;20113;-80
2022/01/26 08:22:07;;;;;;;32.88;19.48;;;;;;;;;;4969890;28;20039;-80
2022/01/26 08:24:33;;;;;;;29.80;20.17;;;;;;;;;;4949412;28;20039;-80
2022/01/26 08:27:06;;;;;;;34.78;20.67;;;;;;;;;;4949995;28;20130;-81
2022/01/26 08:29:48;;;;;;;28.90;19.87;;;;;;;;;;4948248;28;20121;-80
2022/01/26 08:32:14;;;;;;;29.38;19.33;;;;;;;;;;4970976;28;20390;-80
2022/01/26 08:34:40;;;;;;;29.05;18.58;;;;;;;;;;4951988;28;20055;-80
2022/01/26 08:37:07;;;;;;;28.02;17.80;;;;;;;;;;4954005;28;20125;-81
2022/01/26 08:39:34;;;;;;;28.23;17.95;;;;;;;;;;4953863;28;20157;-81
2022/01/26 08:42:00;;;;;;;31.20;19.75;;;;;;;;;;4969577;28;20042;-82
2022/01/26 08:44:27;;;;;;;29.58;18.15;;;;;;;;;;4951858;28;20450;-80
2022/01/26 08:46:53;;;;;;;29.77;18.15;;;;;;;;;;4949513;28;20461;-80
2022/01/26 08:49:19;;;;;;;27.25;17.27;;;;;;;;;;4953782;28;20043;-80
2022/01/26 08:51:48;;;;;;;26.85;17.45;;;;;;;;;;4949595;28;20570;-80
2022/01/26 08:54:16;;;;;;;23.40;16.33;;;;;;;;;;4965492;28;20141;-80
2022/01/26 08:56:42;;;;;;;26.63;17.55;;;;;;;;;;4949835;28;20410;-81
2022/01/26 08:59:08;;;;;;;29.52;19.30;;;;;;;;;;4953615;28;20105;-81
2022/01/26 09:01:34;;;;;;;31.10;19.63;;;;;;;;;;4950042;28;20047;-80
2022/01/26 09:04:00;;;;;;;34.53;21.10;;;;;;;;;;4953931;28;20042;-80
2022/01/26 09:06:26;;;;;;;31.73;20.40;;;;;;;;;;4949767;28;20050;-80
2022/01/26 09:09:00;;;;;;;29.70;19.95;;;;;;;;;;4952826;28;20070;-80
2022/01/26 09:11:26;;;;;;;26.80;17.92;;;;;;;;;;4948800;28;20101;-80
2022/01/26 09:13:57;;;;;;;31.73;20.25;;;;;;;;;;4965692;28;20051;-81
2022/01/26 09:16:25;;;;;;;36.85;19.67;;;;;;;;;;4949520;28;20051;-80
2022/01/26 09:18:54;;;;;;;27.48;18.98;;;;;;;;;;4947205;28;20126;-81
2022/01/26 09:21:24;;;;;;;31.80;19.75;;;;;;;;;;4949245;28;20118;-82
2022/01/26 09:23:51;;;;;;;30.08;20.55;;;;;;;;;;4952497;28;20086;-81
2022/01/26 09:26:18;;;;;;;29.63;18.88;;;;;;;;;;4951406;28;20517;-81
2022/01/26 09:28:44;;;;;;;27.70;18.83;;;;;;;;;;4965790;28;20090;-81
2022/01/26 09:31:10;;;;;;;28.83;18.10;;;;;;;;;;4968225;28;20130;-82
2022/01/26 09:33:36;;;;;;;28.15;17.83;;;;;;;;;;4969657;28;20130;-80
2022/01/26 09:36:03;;;;;;;33.58;18.85;;;;;;;;;;4950526;28;20049;-81
2022/01/26 09:38:30;;;;;;;30.23;20.65;;;;;;;;;;4969606;28;20049;-82
2022/01/26 09:40:56;;;;;;;33.00;19.83;;;;;;;;;;4966221;28;20046;-82
2022/01/26 09:43:23;;;;;;;30.63;18.45;;;;;;;;;;4950510;28;20053;-82
2022/01/26 09:45:49;;;;;;;29.33;19.77;;;;;;;;;;4952047;28;20043;-82
2022/01/26 09:48:17;;;;;;;28.55;17.48;;;;;;;;;;4971251;28;20130;-82
2022/01/26 09:50:44;;;;;;;28.10;17.05;;;;;;;;;;4950887;28;20058;-81
2022/01/26 09:53:22;;;;;;;34.15;18.85;;;;;;;;;;4966914;28;20101;-81
2022/01/26 09:55:48;;;;;;;31.92;19.80;;;;;;;;;;4948029;28;20054;-82
2022/01/26 09:58:15;;;;;;;34.15;19.83;;;;;;;;;;4965907;28;20047;-82
2022/01/26 10:00:41;;;;;;;31.00;18.83;;;;;;;;;;4966394;28;20047;-81
2022/01/26 10:03:08;;;;;;;28.38;18.48;;;;;;;;;;4965870;28;20035;-81
2022/01/26 10:05:42;;;;;;;34.35;19.10;;;;;;;;;;4964161;28;20419;-81
2022/01/26 10:08:28;;;;;;;32.33;19.33;;;;;;;;;;4965707;28;20085;-82
2022/01/26 10:19:04;;;;;;;31.80;20.55;;;4.80;99.90;;;;;;4968015;28;20059;-81
2022/01/26 10:21:30;;;;;;;34.03;19.50;;;4.80;99.90;;;;;;4962962;28;20066;-81
2022/01/26 10:24:07;;;;;;;29.63;20.50;;;4.80;99.90;;;;;;4970382;28;20042;-82
2022/01/26 10:26:33;;;;;;;33.65;19.38;;;4.80;99.90;;;;;;4954864;28;20090;-82
2022/01/26 10:29:04;;;;;;;29.70;18.88;;;4.90;99.90;;;;;;4966689;28;20431;-82
2022/01/26 10:31:39;;;;;;;31.40;18.77;;;4.90;99.90;;;;;;4965896;28;20513;-81
2022/01/26 10:34:14;;;;;;;31.73;18.27;;;4.90;99.90;;;;;;4965160;28;20124;-81
2022/01/26 10:36:45;;;;;;;31.30;19.90;;;4.90;99.90;;;;;;4967399;28;20042;-81
2022/01/26 10:39:19;;;;;;;34.53;20.40;;;4.90;99.90;;;;;;4964924;28;20403;-82
2022/01/26 10:41:45;;;;;;;33.40;19.83;;;4.80;99.90;;;;;;4971911;28;20158;-81
2022/01/26 10:44:11;;;;;;;33.95;20.17;;;4.80;99.90;;;;;;4955424;28;20138;-81
2022/01/26 10:46:40;;;;;;;34.30;20.65;;;4.90;99.90;;;;;;4971666;28;20515;-81
2022/01/26 10:52:03;;;;;;;37.88;22.45;;;4.90;99.90;;;;;;4954380;28;20051;-82
2022/01/26 10:54:39;;;;;;;37.90;20.95;;;5.00;99.90;;;;;;4968562;28;20058;-82
2022/01/26 10:57:10;;;;;;;33.15;19.88;;;5.00;99.90;;;;;;4953617;28;20049;-81
2022/01/26 10:59:38;;;;;;;31.38;19.90;;;5.00;99.90;;;;;;4950875;28;20408;-82
2022/01/26 11:02:05;;;;;;;33.95;20.27;;;5.00;99.90;;;;;;4970442;28;20554;-83
2022/01/26 11:04:34;;;;;;;30.45;20.02;;;5.00;99.90;;;;;;4949793;28;20051;-81
2022/01/26 11:07:01;;;;;;;33.25;20.42;;;5.00;99.90;;;;;;4968948;28;20096;-81
2022/01/26 11:09:30;;;;;;;32.60;20.38;;;5.00;99.90;;;;;;4956522;28;20085;-83
2022/01/26 11:12:03;;;;;;;32.13;20.88;;;5.00;99.90;;;;;;4951578;28;20047;-82
2022/01/26 11:14:49;;;;;;;25.38;17.35;;;5.00;99.90;;;;;;4967813;28;20050;-81
2022/01/26 11:17:27;;;;;;;31.77;18.42;;;5.20;99.90;;;;;;4954397;28;20113;-81
2022/01/26 11:19:58;;;;;;;32.38;18.73;;;5.10;99.90;;;;;;4952127;28;20081;-81
2022/01/26 11:22:30;;;;;;;32.33;18.30;;;5.10;99.90;;;;;;4953071;28;20062;-80
2022/01/26 11:25:09;;;;;;;32.65;19.08;;;5.10;99.90;;;;;;4973175;28;20043;-79
2022/01/26 11:27:36;;;;;;;30.92;17.75;;;5.10;99.90;;;;;;4971432;28;20073;-80
2022/01/26 11:30:18;;;;;;;32.33;18.48;;;5.10;99.90;;;;;;4949154;28;20523;-80
2022/01/26 11:33:18;;;;;;;29.17;17.27;;;5.20;99.90;;;;;;4966107;28;20078;-80
2022/01/26 11:35:47;;;;;;;31.30;17.20;;;5.20;99.90;;;;;;4933325;28;20070;-79
2022/01/26 11:38:50;;;;;;;27.88;17.38;;;5.30;99.90;;;;;;4952998;28;20414;-80
2022/01/26 11:46:59;;;;;;;26.08;16.23;;;5.30;99.90;;;;;;4971016;28;20074;-81
2022/01/26 11:49:33;;;;;;;25.13;16.13;;;5.30;99.90;;;;;;4968056;28;20174;-80
2022/01/26 11:51:58;;;;;;;24.23;16.05;;;5.40;99.90;;;;;;4953211;28;20047;-80
2022/01/26 11:54:27;;;;;;;26.10;16.20;;;5.40;99.90;;;;;;4972789;28;20046;-81
2022/01/26 11:57:08;;;;;;;26.20;15.45;;;5.50;99.90;;;;;;4953296;28;20494;-80
2022/01/26 11:59:38;;;;;;;23.35;14.73;;;;;;;;;;4971522;28;20054;-81
2022/01/26 12:02:18;;;;;;;25.23;15.48;;;;;;;;;;4967279;28;20137;-81
2022/01/26 12:04:47;;;;;;;25.67;15.00;;;;;;;;;;4937222;28;20046;-80
2022/01/26 12:07:22;;;;;;;25.55;15.10;;;;;;;;;;4953779;28;20074;-81
2022/01/26 12:09:48;;;;;;;23.27;14.73;;;;;;;;;;4969565;28;20062;-81
2022/01/26 12:12:21;;;;;;;21.70;14.32;;;;;;;;;;4971381;28;20315;-79
2022/01/26 12:15:07;;;;;;;25.60;14.73;;;;;;;;;;4967931;28;20089;-82
2022/01/26 12:17:39;;;;;;;23.83;14.00;;;;;;;;;;4950280;28;20069;-81
2022/01/26 12:32:01;;;;;;;26.77;14.48;;;;;;;;;;4973404;28;20069;-81
2022/01/26 12:37:05;;;;;;;29.52;16.58;;;;;;;;;;4950267;28;20113;-81
2022/01/26 12:42:39;;;;;;;24.77;14.55;;;;;;;;;;4950314;28;20050;-82
2022/01/26 12:45:05;;;;;;;20.95;14.00;;;;;;;;;;4970215;28;20499;-81
2022/01/26 12:47:32;;;;;;;25.60;14.20;;;;;;;;;;4970077;28;20070;-81
2022/01/26 12:49:58;;;;;;;22.00;12.95;;;;;;;;;;4972249;28;20058;-81
2022/01/26 12:52:25;;;;;;;19.15;12.63;;;;;;;;;;4967417;28;20443;-82
2022/01/26 12:54:51;;;;;;;20.65;12.80;;;;;;;;;;4967482;28;20061;-80
2022/01/26 12:57:17;;;;;;;21.13;13.38;;;;;;;;;;4972296;28;20057;-80
2022/01/26 12:59:43;;;;;;;20.23;11.70;;;;;;;;;;4954447;28;20081;-80
2022/01/26 13:02:10;;;;;;;18.35;11.68;;;;;;;;;;4955486;28;20043;-80
2022/01/26 13:04:36;;;;;;;21.98;11.30;;;;;;;;;;4969547;28;20450;-80
2022/01/26 13:07:02;;;;;;;17.42;11.48;;;;;;;;;;4968843;28;20035;-80
2022/01/26 13:09:29;;;;;;;18.40;10.75;;;;;;;;;;4971049;28;20118;-81
2022/01/26 13:11:59;;;;;;;16.02;10.52;;;;;;;;;;4970811;28;20042;-80
2022/01/26 13:14:29;;;;;;;18.77;11.15;;;;;;;;;;4951609;28;20097;-80
2022/01/26 13:17:20;;;;;;;19.17;10.77;;;;;;;;;;4968343;28;20038;-79
2022/01/26 13:36:38;;;;;;;17.85;11.20;;;;;;;;;;4901201;29;20522;-81
2022/01/26 13:41:51;;;;;;;17.25;10.93;;;;;;;;;;4965345;28;20051;-80
2022/01/26 13:47:16;;;;;;;20.30;11.35;;;;;;;;;;4953339;28;20202;-79
2022/01/26 13:49:53;;;;;;;18.02;11.70;;;;;;;;;;4969441;28;20047;-79
2022/01/26 13:52:49;;;;;;;20.63;12.93;;;;;;;;;;4972765;28;20049;-80
2022/01/26 13:55:30;;;;;;;19.10;12.23;;;;;;;;;;4948260;28;20512;-79
2022/01/26 14:00:24;;;;;;;23.58;14.10;;;;;;;;;;4968522;28;20070;-80
2022/01/26 14:02:56;;;;;;;22.00;13.43;;;;;;;;;;4962318;28;20061;-80
2022/01/26 14:05:22;;;;;;;26.38;14.45;;;;;;;;;;4971145;28;20051;-80
2022/01/26 14:07:48;;;;;;;20.13;12.57;;;;;;;;;;4968662;28;20610;-80
2022/01/26 14:10:15;;;;;;;25.63;14.35;;;;;;;;;;4951754;28;20057;-80
2022/01/26 14:12:46;;;;;;;22.25;13.98;;;;;;;;;;4971156;28;20073;-80
2022/01/26 14:15:12;;;;;;;21.55;14.10;;;;;;;;;;4971448;28;20073;-80
2022/01/26 14:17:58;;;;;;;20.25;13.40;;;;;;;;;;4970791;28;20159;-80
2022/01/26 14:26:14;;;;;;;;;;;;;;;;;;4944081;29;20352;-80
2022/01/26 14:28:40;;;;;;;21.20;13.50;;;;;;;;;;4959258;28;19922;-81
2022/01/26 14:52:53;;;;;;;19.13;13.10;;;;;;;;;;4947387;28;20512;-79
2022/01/26 15:01:01;;;;;;;21.85;13.65;;;;;;;;;;4972149;28;20065;-80
2022/01/26 15:09:23;;;;;;;21.48;14.30;;;;;;;;;;4971254;28;20400;-81
2022/01/26 15:40:50;;;;;;;31.38;16.92;;;;;;;;;;4952228;28;20369;-81
2022/01/26 16:07:51;;;;;;;23.52;14.23;;;;;;;;;;4970016;28;20050;-80
2022/01/26 16:21:26;;;;;;;28.45;14.88;;;;;;;;;;4964376;28;20149;-80
2022/01/26 17:02:35;;;;;;;22.17;13.07;;;;;;;;;;4950214;28;20047;-82
2022/01/26 18:27:05;;;;;;;26.45;14.35;;;;;;;;;;4953675;28;20531;-77
2022/01/26 18:39:50;;;;;;;25.98;14.75;;;;;;;;;;4968429;28;20065;-79
2022/01/26 18:50:28;;;;;;;22.45;13.50;;;;;;;;;;4951032;28;20467;-78
2022/01/26 18:52:54;;;;;;;19.08;12.93;;;;;;;;;;4949571;28;20145;-78
2022/01/26 18:55:20;;;;;;;20.98;12.50;;;;;;;;;;4967317;28;20126;-79
2022/01/26 18:57:46;;;;;;;20.42;12.70;;;;;;;;;;4970107;28;20031;-79
2022/01/26 19:00:13;;;;;;;23.13;14.88;;;;;;;;;;4955787;28;20514;-79
2022/01/26 19:02:39;;;;;;;22.30;12.88;;;;;;;;;;4950281;28;20129;-78
2022/01/26 19:05:06;;;;;;;21.05;12.43;;;;;;;;;;4954238;28;20051;-78
2022/01/26 19:07:32;;;;;;;21.35;13.32;;;;;;;;;;4955413;28;20058;-78
2022/01/26 19:09:58;;;;;;;22.85;13.48;;;;;;;;;;4948156;28;20055;-78
2022/01/26 19:12:27;;;;;;;22.67;13.57;;;;;;;;;;4952099;28;20833;-81
2022/01/26 19:14:58;;;;;;;26.15;15.38;;;;;;;;;;4956082;28;20451;-81
2022/01/26 19:17:30;;;;;;;22.23;13.73;;;;;;;;;;4973124;28;20047;-81
2022/01/26 19:25:08;;;;;;;22.63;14.02;;;;;;;;;;4967507;28;20259;-76
2022/01/26 19:27:44;;;;;;;;;;;;;;;;;;4969105;28;20047;-76
2022/01/26 19:32:55;;;;;;;26.25;13.90;;;;;;;;;;4969549;28;20055;-76
2022/01/26 19:41:58;;;;;;;21.83;13.18;;;;;;;;;;4966578;28;20446;-79
2022/01/26 19:44:03;;;;;;;23.35;13.43;;;;;;;;;;4955095;28;20050;-78
2022/01/26 19:54:18;;;;;;;24.23;13.15;;;;;;;;;;4953204;28;20110;-76
2022/01/26 19:56:45;;;;;;;26.50;13.98;;;;;;;;;;4954808;28;20475;-79
2022/01/26 19:59:11;;;;;;;27.60;13.35;;;;;;;;;;4952598;28;20351;-79
2022/01/26 20:01:37;;;;;;;25.13;13.05;;;;;;;;;;4964717;28;20035;-79
2022/01/26 20:04:03;;;;;;;24.90;13.73;;;;;;;;;;4966758;28;20038;-79
2022/01/26 20:06:29;;;;;;;23.08;11.90;;;;;;;;;;4951553;28;20113;-79
2022/01/26 20:09:00;;;;;;;25.02;12.70;;;;;;;;;;4972257;28;20154;-78
2022/01/26 20:14:26;;;;;;;21.95;12.10;;;;;;;;;;4962390;28;20062;-85
2022/01/26 20:16:52;;;;;;;21.33;11.73;;;;;;;;;;4967493;28;20098;-79
2022/01/26 20:19:18;;;;;;;22.35;12.00;;;;;;;;;;4969210;28;20049;-77
2022/01/26 20:21:45;;;;;;;22.15;11.10;;;;;;;;;;4950568;28;20476;-78
2022/01/26 20:24:14;;;;;;;22.98;12.57;;;;;;;;;;4970220;28;20487;-79
2022/01/26 20:26:40;;;;;;;21.92;11.63;;;;;;;;;;4965840;28;20122;-79
2022/01/26 20:29:06;;;;;;;22.98;13.75;;;;;;;;;;4966098;28;20069;-78
2022/01/26 20:31:32;;;;;;;20.23;12.75;;;;;;;;;;4949712;28;20050;-79
2022/01/26 20:33:58;;;;;;;19.38;10.48;;;;;;;;;;4967182;28;20050;-79
2022/01/26 20:36:28;;;;;;;19.73;11.32;;;;;;;;;;4967649;28;20089;-79
2022/01/26 20:38:55;;;;;;;23.33;12.00;;;;;;;;;;4970910;28;20122;-80
2022/01/26 20:41:21;;;;;;;24.33;12.90;;;;;;;;;;4952511;28;20063;-77
2022/01/26 20:43:47;;;;;;;20.52;11.75;;;;;;;;;;4969866;28;20054;-84
2022/01/26 20:46:13;;;;;;;23.33;11.30;;;;;;;;;;4951329;28;20077;-80
2022/01/26 20:48:39;;;;;;;21.15;12.02;;;;;;;;;;4969305;28;20039;-80
2022/01/26 20:51:08;;;;;;;21.98;11.63;;;;;;;;;;4970007;28;20043;-82
2022/01/26 20:53:35;;;;;;;22.52;11.60;;;;;;;;;;4954093;28;20407;-81
2022/01/26 20:56:01;;;;;;;22.77;10.15;;;;;;;;;;4948995;28;20043;-80
2022/01/26 20:58:27;;;;;;;19.52;10.43;;;;;;;;;;4969852;28;20069;-78
2022/01/26 21:00:54;;;;;;;18.48;10.10;;;;;;;;;;4966844;28;20089;-82
2022/01/26 21:03:22;;;;;;;18.98;9.30;;;;;;;;;;4969831;28;20054;-81
2022/01/26 21:05:48;;;;;;;23.58;10.43;;;;;;;;;;4966531;28;20057;-84